sensor_id;sensor_type;location;lat;lon;timestamp;pressure;altitude;pressure_sealevel;temperature;humidity
63399;BME280;49533;-34.520;150.798;2022-07-15T00:00:53;101712.81;;;11.72;59.57
63399;BME280;49533;-34.520;150.798;2022-07-15T00:03:20;101719.34;;;11.76;59.49
63399;BME280;49533;-34.520;150.798;2022-07-15T00:05:47;101720.09;;;11.82;59.07
63399;BME280;49533;-34.520;150.798;2022-07-15T00:08:14;101716.84;;;11.80;59.18
63399;BME280;49533;-34.520;150.798;2022-07-15T00:10:41;101719.78;;;11.83;59.17
63399;BME280;49533;-34.520;150.798;2022-07-15T00:13:08;101720.56;;;11.94;59.04
63399;BME280;49533;-34.520;150.798;2022-07-15T00:15:35;101711.19;;;12.05;58.55
63399;BME280;49533;-34.520;150.798;2022-07-15T00:18:02;101714.38;;;12.12;58.07
63399;BME280;49533;-34.520;150.798;2022-07-15T00:20:31;101712.47;;;12.13;58.22
63399;BME280;49533;-34.520;150.798;2022-07-15T00:23:04;101713.47;;;12.22;58.13
63399;BME280;49533;-34.520;150.798;2022-07-15T00:25:32;101722.41;;;12.28;57.90
63399;BME280;49533;-34.520;150.798;2022-07-15T00:28:02;101716.31;;;12.36;57.64
63399;BME280;49533;-34.520;150.798;2022-07-15T00:30:34;101707.53;;;12.39;57.22
63399;BME280;49533;-34.520;150.798;2022-07-15T00:33:02;101710.16;;;12.49;57.36
63399;BME280;49533;-34.520;150.798;2022-07-15T00:35:30;101698.66;;;12.52;57.41
63399;BME280;49533;-34.520;150.798;2022-07-15T00:37:57;101705.16;;;12.56;57.16
63399;BME280;49533;-34.520;150.798;2022-07-15T00:40:25;101699.06;;;12.65;57.32
63399;BME280;49533;-34.520;150.798;2022-07-15T00:42:52;101700.97;;;12.64;57.28
63399;BME280;49533;-34.520;150.798;2022-07-15T00:45:22;101697.97;;;12.66;56.96
63399;BME280;49533;-34.520;150.798;2022-07-15T00:47:52;101696.78;;;12.72;56.76
63399;BME280;49533;-34.520;150.798;2022-07-15T00:50:21;101690.75;;;12.75;56.77
63399;BME280;49533;-34.520;150.798;2022-07-15T00:52:58;101688.25;;;12.78;56.55
63399;BME280;49533;-34.520;150.798;2022-07-15T00:55:27;101688.47;;;12.82;56.53
63399;BME280;49533;-34.520;150.798;2022-07-15T00:58:00;101689.34;;;12.77;56.96
63399;BME280;49533;-34.520;150.798;2022-07-15T01:00:28;101686.63;;;12.77;55.97
63399;BME280;49533;-34.520;150.798;2022-07-15T01:02:59;101682.44;;;12.85;55.93
63399;BME280;49533;-34.520;150.798;2022-07-15T01:05:27;101680.50;;;12.86;56.16
63399;BME280;49533;-34.520;150.798;2022-07-15T01:07:54;101683.69;;;12.93;56.35
63399;BME280;49533;-34.520;150.798;2022-07-15T01:10:22;101672.94;;;13.01;55.89
63399;BME280;49533;-34.520;150.798;2022-07-15T01:12:52;101675.00;;;13.10;55.91
63399;BME280;49533;-34.520;150.798;2022-07-15T01:15:20;101665.94;;;13.14;55.79
63399;BME280;49533;-34.520;150.798;2022-07-15T01:17:47;101657.88;;;13.23;55.71
63399;BME280;49533;-34.520;150.798;2022-07-15T01:20:15;101653.09;;;13.15;56.00
63399;BME280;49533;-34.520;150.798;2022-07-15T01:22:42;101653.53;;;13.03;55.88
63399;BME280;49533;-34.520;150.798;2022-07-15T01:25:10;101650.13;;;13.11;55.60
63399;BME280;49533;-34.520;150.798;2022-07-15T01:27:37;101651.09;;;13.20;55.26
63399;BME280;49533;-34.520;150.798;2022-07-15T01:30:04;101643.69;;;13.21;55.45
63399;BME280;49533;-34.520;150.798;2022-07-15T01:32:31;101643.09;;;13.24;54.90
63399;BME280;49533;-34.520;150.798;2022-07-15T01:34:58;101643.63;;;13.26;55.01
63399;BME280;49533;-34.520;150.798;2022-07-15T01:37:26;101642.75;;;13.31;55.31
63399;BME280;49533;-34.520;150.798;2022-07-15T01:39:53;101636.09;;;13.37;55.01
63399;BME280;49533;-34.520;150.798;2022-07-15T01:42:20;101634.94;;;13.43;54.88
63399;BME280;49533;-34.520;150.798;2022-07-15T01:44:47;101623.28;;;13.37;54.67
63399;BME280;49533;-34.520;150.798;2022-07-15T01:47:14;101624.91;;;13.38;54.41
63399;BME280;49533;-34.520;150.798;2022-07-15T01:49:41;101617.75;;;13.42;54.71
63399;BME280;49533;-34.520;150.798;2022-07-15T01:52:08;101619.78;;;13.51;54.28
63399;BME280;49533;-34.520;150.798;2022-07-15T01:54:36;101605.59;;;13.48;54.39
63399;BME280;49533;-34.520;150.798;2022-07-15T01:57:04;101608.06;;;13.50;54.82
63399;BME280;49533;-34.520;150.798;2022-07-15T01:59:31;101606.84;;;13.56;54.52
63399;BME280;49533;-34.520;150.798;2022-07-15T02:02:00;101600.47;;;13.61;54.56
63399;BME280;49533;-34.520;150.798;2022-07-15T02:04:27;101593.09;;;13.61;54.30
63399;BME280;49533;-34.520;150.798;2022-07-15T02:06:54;101594.00;;;13.57;54.40
63399;BME280;49533;-34.520;150.798;2022-07-15T02:09:22;101592.09;;;13.71;54.51
63399;BME280;49533;-34.520;150.798;2022-07-15T02:11:49;101590.88;;;13.77;54.60
63399;BME280;49533;-34.520;150.798;2022-07-15T02:14:16;101589.28;;;13.76;54.78
63399;BME280;49533;-34.520;150.798;2022-07-15T02:16:43;101585.13;;;13.79;54.81
63399;BME280;49533;-34.520;150.798;2022-07-15T02:19:10;101576.50;;;13.72;54.75
63399;BME280;49533;-34.520;150.798;2022-07-15T02:21:37;101578.63;;;13.75;54.93
63399;BME280;49533;-34.520;150.798;2022-07-15T02:24:04;101575.72;;;13.71;54.75
63399;BME280;49533;-34.520;150.798;2022-07-15T02:26:32;101564.78;;;13.71;55.09
63399;BME280;49533;-34.520;150.798;2022-07-15T02:28:59;101570.66;;;13.78;54.94
63399;BME280;49533;-34.520;150.798;2022-07-15T02:31:27;101568.94;;;13.82;55.13
63399;BME280;49533;-34.520;150.798;2022-07-15T02:33:54;101563.97;;;13.84;54.64
63399;BME280;49533;-34.520;150.798;2022-07-15T02:36:22;101563.78;;;13.81;54.99
63399;BME280;49533;-34.520;150.798;2022-07-15T02:38:49;101561.84;;;13.81;54.95
63399;BME280;49533;-34.520;150.798;2022-07-15T02:41:17;101560.84;;;13.91;54.89
63399;BME280;49533;-34.520;150.798;2022-07-15T02:43:44;101555.16;;;13.87;54.83
63399;BME280;49533;-34.520;150.798;2022-07-15T02:46:11;101550.13;;;13.81;54.90
63399;BME280;49533;-34.520;150.798;2022-07-15T02:48:38;101549.19;;;13.72;54.13
63399;BME280;49533;-34.520;150.798;2022-07-15T02:51:06;101547.69;;;13.65;54.17
63399;BME280;49533;-34.520;150.798;2022-07-15T02:53:34;101549.81;;;13.68;53.75
63399;BME280;49533;-34.520;150.798;2022-07-15T02:56:01;101536.66;;;13.70;53.73
63399;BME280;49533;-34.520;150.798;2022-07-15T02:58:29;101536.25;;;13.77;53.77
63399;BME280;49533;-34.520;150.798;2022-07-15T03:00:58;101538.47;;;13.75;53.43
63399;BME280;49533;-34.520;150.798;2022-07-15T03:03:26;101529.78;;;13.73;53.79
63399;BME280;49533;-34.520;150.798;2022-07-15T03:05:57;101534.66;;;13.76;54.04
63399;BME280;49533;-34.520;150.798;2022-07-15T03:08:24;101536.88;;;13.74;53.35
63399;BME280;49533;-34.520;150.798;2022-07-15T03:10:51;101527.25;;;13.77;53.65
63399;BME280;49533;-34.520;150.798;2022-07-15T03:13:19;101530.91;;;13.86;53.83
63399;BME280;49533;-34.520;150.798;2022-07-15T03:15:46;101531.09;;;13.89;53.85
63399;BME280;49533;-34.520;150.798;2022-07-15T03:18:13;101532.22;;;13.88;53.85
63399;BME280;49533;-34.520;150.798;2022-07-15T03:20:40;101534.00;;;13.93;54.15
63399;BME280;49533;-34.520;150.798;2022-07-15T03:23:07;101530.81;;;13.91;53.80
63399;BME280;49533;-34.520;150.798;2022-07-15T03:25:35;101537.06;;;13.91;53.47
63399;BME280;49533;-34.520;150.798;2022-07-15T03:28:02;101530.81;;;13.91;53.13
63399;BME280;49533;-34.520;150.798;2022-07-15T03:30:29;101522.91;;;13.89;53.14
63399;BME280;49533;-34.520;150.798;2022-07-15T03:32:56;101525.22;;;13.96;53.28
63399;BME280;49533;-34.520;150.798;2022-07-15T03:35:24;101519.44;;;13.98;53.56
63399;BME280;49533;-34.520;150.798;2022-07-15T03:37:51;101522.69;;;14.00;53.49
63399;BME280;49533;-34.520;150.798;2022-07-15T03:40:18;101516.19;;;13.96;54.13
63399;BME280;49533;-34.520;150.798;2022-07-15T03:42:45;101512.38;;;13.97;53.78
63399;BME280;49533;-34.520;150.798;2022-07-15T03:45:12;101509.03;;;14.00;53.40
63399;BME280;49533;-34.520;150.798;2022-07-15T03:47:39;101507.59;;;14.02;53.43
63399;BME280;49533;-34.520;150.798;2022-07-15T03:50:07;101514.19;;;14.01;53.46
63399;BME280;49533;-34.520;150.798;2022-07-15T03:52:34;101508.72;;;14.01;53.44
63399;BME280;49533;-34.520;150.798;2022-07-15T03:55:01;101512.25;;;14.02;53.75
63399;BME280;49533;-34.520;150.798;2022-07-15T03:57:29;101510.34;;;14.02;53.78
63399;BME280;49533;-34.520;150.798;2022-07-15T03:59:56;101512.78;;;14.04;54.02
63399;BME280;49533;-34.520;150.798;2022-07-15T04:02:23;101511.13;;;14.03;54.16
63399;BME280;49533;-34.520;150.798;2022-07-15T04:04:50;101512.25;;;14.02;54.16
63399;BME280;49533;-34.520;150.798;2022-07-15T04:07:17;101518.25;;;14.04;54.24
63399;BME280;49533;-34.520;150.798;2022-07-15T04:09:44;101515.78;;;14.02;54.01
63399;BME280;49533;-34.520;150.798;2022-07-15T04:12:11;101515.78;;;14.02;54.01
63399;BME280;49533;-34.520;150.798;2022-07-15T04:14:38;101515.00;;;14.02;53.86
63399;BME280;49533;-34.520;150.798;2022-07-15T04:17:05;101523.69;;;14.04;54.39
63399;BME280;49533;-34.520;150.798;2022-07-15T04:19:32;101513.56;;;14.04;54.50
63399;BME280;49533;-34.520;150.798;2022-07-15T04:21:59;101514.38;;;14.05;54.74
63399;BME280;49533;-34.520;150.798;2022-07-15T04:24:26;101517.91;;;14.05;54.58
63399;BME280;49533;-34.520;150.798;2022-07-15T04:26:54;101511.66;;;14.05;54.59
63399;BME280;49533;-34.520;150.798;2022-07-15T04:29:21;101513.25;;;14.06;54.65
63399;BME280;49533;-34.520;150.798;2022-07-15T04:31:48;101499.59;;;14.06;54.89
63399;BME280;49533;-34.520;150.798;2022-07-15T04:34:15;101507.50;;;14.07;54.73
63399;BME280;49533;-34.520;150.798;2022-07-15T04:36:42;101501.22;;;14.07;54.72
63399;BME280;49533;-34.520;150.798;2022-07-15T04:39:09;101498.50;;;14.07;54.68
63399;BME280;49533;-34.520;150.798;2022-07-15T04:41:36;101501.22;;;14.07;54.92
63399;BME280;49533;-34.520;150.798;2022-07-15T04:44:03;101501.22;;;14.07;54.54
63399;BME280;49533;-34.520;150.798;2022-07-15T04:46:30;101509.41;;;14.07;54.25
63399;BME280;49533;-34.520;150.798;2022-07-15T04:48:57;101502.81;;;14.08;54.30
63399;BME280;49533;-34.520;150.798;2022-07-15T04:51:42;101515.69;;;14.07;54.38
63399;BME280;49533;-34.520;150.798;2022-07-15T04:54:09;101510.50;;;14.06;54.75
63399;BME280;49533;-34.520;150.798;2022-07-15T04:56:36;101511.34;;;14.06;55.00
63399;BME280;49533;-34.520;150.798;2022-07-15T04:59:03;101502.66;;;14.04;54.92
63399;BME280;49533;-34.520;150.798;2022-07-15T05:01:30;101505.47;;;13.99;55.21
63399;BME280;49533;-34.520;150.798;2022-07-15T05:03:58;101514.78;;;13.98;55.44
63399;BME280;49533;-34.520;150.798;2022-07-15T05:06:25;101512.38;;;13.97;55.10
63399;BME280;49533;-34.520;150.798;2022-07-15T05:08:52;101512.47;;;13.91;55.46
63399;BME280;49533;-34.520;150.798;2022-07-15T05:11:19;101505.88;;;13.92;55.40
63399;BME280;49533;-34.520;150.798;2022-07-15T05:13:46;101504.28;;;13.91;55.31
63399;BME280;49533;-34.520;150.798;2022-07-15T05:16:13;101504.38;;;13.86;55.32
63399;BME280;49533;-34.520;150.798;2022-07-15T05:18:40;101505.47;;;13.85;55.18
63399;BME280;49533;-34.520;150.798;2022-07-15T05:21:07;101504.38;;;13.86;55.27
63399;BME280;49533;-34.520;150.798;2022-07-15T05:23:35;101494.88;;;13.84;55.10
63399;BME280;49533;-34.520;150.798;2022-07-15T05:26:02;101498.41;;;13.84;55.40
63399;BME280;49533;-34.520;150.798;2022-07-15T05:28:29;101493.88;;;13.80;55.28
63399;BME280;49533;-34.520;150.798;2022-07-15T05:30:56;101495.00;;;13.79;55.22
63399;BME280;49533;-34.520;150.798;2022-07-15T05:33:23;101483.75;;;13.80;55.24
63399;BME280;49533;-34.520;150.798;2022-07-15T05:35:50;101486.19;;;13.82;55.35
63399;BME280;49533;-34.520;150.798;2022-07-15T05:38:17;101485.88;;;13.83;55.68
63399;BME280;49533;-34.520;150.798;2022-07-15T05:40:44;101492.16;;;13.84;55.77
63399;BME280;49533;-34.520;150.798;2022-07-15T05:43:12;101484.47;;;13.86;55.70
63399;BME280;49533;-34.520;150.798;2022-07-15T05:45:39;101484.94;;;13.88;55.66
63399;BME280;49533;-34.520;150.798;2022-07-15T05:48:06;101476.56;;;13.84;55.57
63399;BME280;49533;-34.520;150.798;2022-07-15T05:50:34;101476.75;;;13.88;55.77
63399;BME280;49533;-34.520;150.798;2022-07-15T05:53:01;101475.16;;;13.87;55.86
63399;BME280;49533;-34.520;150.798;2022-07-15T05:55:28;101470.81;;;13.86;55.63
63399;BME280;49533;-34.520;150.798;2022-07-15T05:57:56;101479.81;;;13.86;55.70
63399;BME280;49533;-34.520;150.798;2022-07-15T06:00:23;101466.66;;;13.88;56.18
63399;BME280;49533;-34.520;150.798;2022-07-15T06:02:50;101470.47;;;13.87;55.93
63399;BME280;49533;-34.520;150.798;2022-07-15T06:05:17;101461.78;;;13.85;56.07
63399;BME280;49533;-34.520;150.798;2022-07-15T06:07:44;101460.97;;;13.85;55.87
63399;BME280;49533;-34.520;150.798;2022-07-15T06:10:11;101451.69;;;13.86;56.14
63399;BME280;49533;-34.520;150.798;2022-07-15T06:12:38;101450.84;;;13.85;55.86
63399;BME280;49533;-34.520;150.798;2022-07-15T06:15:06;101450.03;;;13.85;56.38
63399;BME280;49533;-34.520;150.798;2022-07-15T06:17:34;101458.81;;;13.96;56.60
63399;BME280;49533;-34.520;150.798;2022-07-15T06:20:01;101449.91;;;14.04;56.67
63399;BME280;49533;-34.520;150.798;2022-07-15T06:22:28;101441.91;;;14.07;56.74
63399;BME280;49533;-34.520;150.798;2022-07-15T06:24:55;101446.97;;;14.14;56.66
63399;BME280;49533;-34.520;150.798;2022-07-15T06:27:22;101441.97;;;14.16;57.03
63399;BME280;49533;-34.520;150.798;2022-07-15T06:29:50;101444.59;;;14.21;57.07
63399;BME280;49533;-34.520;150.798;2022-07-15T06:32:18;101445.09;;;14.23;57.20
63399;BME280;49533;-34.520;150.798;2022-07-15T06:34:45;101438.69;;;14.28;57.52
63399;BME280;49533;-34.520;150.798;2022-07-15T06:37:12;101444.97;;;14.28;57.35
63399;BME280;49533;-34.520;150.798;2022-07-15T06:39:39;101450.44;;;14.28;57.46
63399;BME280;49533;-34.520;150.798;2022-07-15T06:42:07;101451.75;;;14.31;57.54
63399;BME280;49533;-34.520;150.798;2022-07-15T06:44:34;101445.97;;;14.32;57.30
63399;BME280;49533;-34.520;150.798;2022-07-15T06:47:02;101442.44;;;14.32;57.32
63399;BME280;49533;-34.520;150.798;2022-07-15T06:49:30;101443.25;;;14.32;57.36
63399;BME280;49533;-34.520;150.798;2022-07-15T06:51:57;101437.78;;;14.32;57.44
63399;BME280;49533;-34.520;150.798;2022-07-15T06:54:25;101429.28;;;13.98;57.11
63399;BME280;49533;-34.520;150.798;2022-07-15T06:56:52;101430.97;;;14.07;58.02
63399;BME280;49533;-34.520;150.798;2022-07-15T06:59:19;101430.44;;;14.19;57.73
63399;BME280;49533;-34.520;150.798;2022-07-15T07:01:47;101425.97;;;14.23;57.52
63399;BME280;49533;-34.520;150.798;2022-07-15T07:04:14;101424.84;;;14.24;57.36
63399;BME280;49533;-34.520;150.798;2022-07-15T07:06:41;101432.44;;;14.27;57.47
63399;BME280;49533;-34.520;150.798;2022-07-15T07:09:09;101436.78;;;14.28;57.31
63399;BME280;49533;-34.520;150.798;2022-07-15T07:11:36;101434.03;;;14.28;57.44
63399;BME280;49533;-34.520;150.798;2022-07-15T07:14:03;101432.94;;;14.29;57.50
63399;BME280;49533;-34.520;150.798;2022-07-15T07:16:30;101433.75;;;14.30;57.70
63399;BME280;49533;-34.520;150.798;2022-07-15T07:18:57;101430.19;;;14.29;57.64
63399;BME280;49533;-34.520;150.798;2022-07-15T07:21:25;101434.84;;;14.29;57.50
63399;BME280;49533;-34.520;150.798;2022-07-15T07:23:52;101434.03;;;14.28;57.64
63399;BME280;49533;-34.520;150.798;2022-07-15T07:26:19;101435.47;;;14.26;57.78
63399;BME280;49533;-34.520;150.798;2022-07-15T07:28:46;101440.63;;;14.27;57.68
63399;BME280;49533;-34.520;150.798;2022-07-15T07:31:14;101442.56;;;14.27;57.74
63399;BME280;49533;-34.520;150.798;2022-07-15T07:33:42;101435.78;;;14.24;57.63
63399;BME280;49533;-34.520;150.798;2022-07-15T07:36:09;101439.63;;;14.23;57.67
63399;BME280;49533;-34.520;150.798;2022-07-15T07:38:37;101449.47;;;14.24;57.87
63399;BME280;49533;-34.520;150.798;2022-07-15T07:41:04;101447.03;;;14.23;57.79
63399;BME280;49533;-34.520;150.798;2022-07-15T07:43:31;101456.81;;;14.24;57.69
63399;BME280;49533;-34.520;150.798;2022-07-15T07:45:59;101439.13;;;14.21;57.66
63399;BME280;49533;-34.520;150.798;2022-07-15T07:48:26;101448.44;;;14.20;57.65
63399;BME280;49533;-34.520;150.798;2022-07-15T07:50:53;101438.66;;;14.19;57.66
63399;BME280;49533;-34.520;150.798;2022-07-15T07:53:20;101432.66;;;14.17;57.86
63399;BME280;49533;-34.520;150.798;2022-07-15T07:55:48;101439.22;;;14.16;57.70
63399;BME280;49533;-34.520;150.798;2022-07-15T07:58:16;101434.91;;;14.15;57.63
63399;BME280;49533;-34.520;150.798;2022-07-15T08:00:44;101442.59;;;14.13;57.69
63399;BME280;49533;-34.520;150.798;2022-07-15T08:03:11;101455.16;;;14.14;57.63
63399;BME280;49533;-34.520;150.798;2022-07-15T08:05:38;101465.25;;;14.13;57.65
63399;BME280;49533;-34.520;150.798;2022-07-15T08:08:07;101466.38;;;14.12;57.65
63399;BME280;49533;-34.520;150.798;2022-07-15T08:10:34;101463.94;;;14.11;57.52
63399;BME280;49533;-34.520;150.798;2022-07-15T08:13:02;101467.81;;;14.10;57.60
63399;BME280;49533;-34.520;150.798;2022-07-15T08:15:29;101472.47;;;14.09;57.67
63399;BME280;49533;-34.520;150.798;2022-07-15T08:17:56;101476.31;;;14.08;57.64
63399;BME280;49533;-34.520;150.798;2022-07-15T08:20:23;101467.63;;;14.06;57.56
63399;BME280;49533;-34.520;150.798;2022-07-15T08:22:50;101463.06;;;14.02;57.63
63399;BME280;49533;-34.520;150.798;2022-07-15T08:25:26;101477.25;;;14.04;57.58
63399;BME280;49533;-34.520;150.798;2022-07-15T08:27:53;101476.75;;;14.02;57.43
63399;BME280;49533;-34.520;150.798;2022-07-15T08:30:20;101489.59;;;14.01;57.74
63399;BME280;49533;-34.520;150.798;2022-07-15T08:32:47;101495.34;;;14.00;57.69
63399;BME280;49533;-34.520;150.798;2022-07-15T08:35:15;101493.25;;;13.97;57.48
63399;BME280;49533;-34.520;150.798;2022-07-15T08:37:42;101496.78;;;13.97;57.52
63399;BME280;49533;-34.520;150.798;2022-07-15T08:40:10;101495.19;;;13.96;57.67
63399;BME280;49533;-34.520;150.798;2022-07-15T08:42:38;101494.34;;;13.96;57.69
63399;BME280;49533;-34.520;150.798;2022-07-15T08:45:08;101494.97;;;13.92;57.61
63399;BME280;49533;-34.520;150.798;2022-07-15T08:47:37;101501.22;;;13.93;57.60
63399;BME280;49533;-34.520;150.798;2022-07-15T08:50:06;101507.00;;;13.91;57.71
63399;BME280;49533;-34.520;150.798;2022-07-15T08:52:37;101513.56;;;13.90;57.60
63399;BME280;49533;-34.520;150.798;2022-07-15T08:55:06;101517.44;;;13.89;57.60
63399;BME280;49533;-34.520;150.798;2022-07-15T08:57:34;101521.28;;;13.88;57.56
63399;BME280;49533;-34.520;150.798;2022-07-15T09:00:02;101522.72;;;13.86;57.49
63399;BME280;49533;-34.520;150.798;2022-07-15T09:02:31;101519.47;;;13.84;57.55
63399;BME280;49533;-34.520;150.798;2022-07-15T09:05:27;101518.66;;;13.83;57.52
63399;BME280;49533;-34.520;150.798;2022-07-15T09:07:57;101515.41;;;13.81;57.86
63399;BME280;49533;-34.520;150.798;2022-07-15T09:10:40;101514.91;;;13.79;57.56
63399;BME280;49533;-34.520;150.798;2022-07-15T09:13:09;101523.09;;;13.79;57.79
63399;BME280;49533;-34.520;150.798;2022-07-15T09:15:38;101513.59;;;13.77;57.54
63399;BME280;49533;-34.520;150.798;2022-07-15T09:18:14;101519.34;;;13.75;57.57
63399;BME280;49533;-34.520;150.798;2022-07-15T09:20:44;101522.41;;;13.74;57.50
63399;BME280;49533;-34.520;150.798;2022-07-15T09:23:13;101527.34;;;13.72;57.62
63399;BME280;49533;-34.520;150.798;2022-07-15T09:25:44;101525.75;;;13.70;57.69
63399;BME280;49533;-34.520;150.798;2022-07-15T09:28:11;101526.84;;;13.69;57.75
63399;BME280;49533;-34.520;150.798;2022-07-15T09:30:40;101521.47;;;13.64;57.59
63399;BME280;49533;-34.520;150.798;2022-07-15T09:33:35;101523.13;;;13.65;57.68
63399;BME280;49533;-34.520;150.798;2022-07-15T09:38:52;101533.81;;;13.62;57.75
63399;BME280;49533;-34.520;150.798;2022-07-15T09:41:25;101528.47;;;13.57;57.85
63399;BME280;49533;-34.520;150.798;2022-07-15T09:43:54;101523.31;;;13.55;57.76
63399;BME280;49533;-34.520;150.798;2022-07-15T09:46:23;101530.38;;;13.56;57.69
63399;BME280;49533;-34.520;150.798;2022-07-15T09:48:51;101529.88;;;13.54;57.74
63399;BME280;49533;-34.520;150.798;2022-07-15T09:51:21;101528.25;;;13.53;57.62
63399;BME280;49533;-34.520;150.798;2022-07-15T09:53:48;101537.53;;;13.52;57.79
63399;BME280;49533;-34.520;150.798;2022-07-15T09:56:18;101537.88;;;13.51;57.71
63399;BME280;49533;-34.520;150.798;2022-07-15T09:58:50;101539.28;;;13.48;57.68
63399;BME280;49533;-34.520;150.798;2022-07-15T10:01:17;101536.03;;;13.46;57.74
63399;BME280;49533;-34.520;150.798;2022-07-15T10:03:44;101551.63;;;13.45;57.90
63399;BME280;49533;-34.520;150.798;2022-07-15T10:06:14;101548.38;;;13.43;57.92
63399;BME280;49533;-34.520;150.798;2022-07-15T10:08:46;101555.25;;;13.41;57.83
63399;BME280;49533;-34.520;150.798;2022-07-15T10:11:15;101552.00;;;13.39;57.86
63399;BME280;49533;-34.520;150.798;2022-07-15T10:22:44;101549.97;;;13.31;57.65
63399;BME280;49533;-34.520;150.798;2022-07-15T10:30:31;101539.66;;;12.76;58.18
63399;BME280;49533;-34.520;150.798;2022-07-15T10:35:51;101531.88;;;13.02;57.87
63399;BME280;49533;-34.520;150.798;2022-07-15T10:38:31;101537.75;;;13.09;58.13
63399;BME280;49533;-34.520;150.798;2022-07-15T10:56:37;101554.50;;;13.02;57.94
63399;BME280;49533;-34.520;150.798;2022-07-15T10:59:17;101551.25;;;13.00;57.81
63399;BME280;49533;-34.520;150.798;2022-07-15T11:04:33;101536.09;;;12.94;57.59
63399;BME280;49533;-34.520;150.798;2022-07-15T11:15:02;101536.47;;;12.88;58.23
63399;BME280;49533;-34.520;150.798;2022-07-15T11:22:27;101561.31;;;12.86;57.83
63399;BME280;49533;-34.520;150.798;2022-07-15T11:24:55;101559.16;;;12.83;57.97
63399;BME280;49533;-34.520;150.798;2022-07-15T11:27:24;101543.41;;;12.80;58.01
63399;BME280;49533;-34.520;150.798;2022-07-15T11:29:54;101542.81;;;12.83;57.75
63399;BME280;49533;-34.520;150.798;2022-07-15T11:32:25;101545.63;;;12.78;58.11
63399;BME280;49533;-34.520;150.798;2022-07-15T11:34:54;101549.97;;;12.79;57.82
63399;BME280;49533;-34.520;150.798;2022-07-15T11:37:29;101553.31;;;12.76;58.20
63399;BME280;49533;-34.520;150.798;2022-07-15T11:40:17;101552.47;;;12.75;58.25
63399;BME280;49533;-34.520;150.798;2022-07-15T11:43:04;101554.72;;;12.73;58.14
63399;BME280;49533;-34.520;150.798;2022-07-15T11:45:49;101559.66;;;12.71;58.13
63399;BME280;49533;-34.520;150.798;2022-07-15T11:48:16;101551.22;;;12.68;58.01
63399;BME280;49533;-34.520;150.798;2022-07-15T11:50:52;101560.25;;;12.68;57.88
63399;BME280;49533;-34.520;150.798;2022-07-15T11:53:20;101559.41;;;12.68;58.15
63399;BME280;49533;-34.520;150.798;2022-07-15T11:58:15;101554.03;;;12.62;58.20
63399;BME280;49533;-34.520;150.798;2022-07-15T12:00:51;101555.16;;;12.61;58.41
63399;BME280;49533;-34.520;150.798;2022-07-15T12:03:18;101547.56;;;12.58;58.42
63399;BME280;49533;-34.520;150.798;2022-07-15T12:06:04;101548.66;;;12.57;58.10
63399;BME280;49533;-34.520;150.798;2022-07-15T12:08:41;101552.50;;;12.56;58.23
63399;BME280;49533;-34.520;150.798;2022-07-15T12:11:20;101540.78;;;12.56;58.26
63399;BME280;49533;-34.520;150.798;2022-07-15T12:14:09;101541.38;;;12.53;58.33
63399;BME280;49533;-34.520;150.798;2022-07-15T12:19:25;101541.94;;;12.50;58.19
63399;BME280;49533;-34.520;150.798;2022-07-15T12:21:58;101543.06;;;12.49;58.52
63399;BME280;49533;-34.520;150.798;2022-07-15T12:24:35;101552.66;;;12.46;58.20
63399;BME280;49533;-34.520;150.798;2022-07-15T12:27:02;101547.47;;;12.45;58.14
63399;BME280;49533;-34.520;150.798;2022-07-15T12:29:31;101558.69;;;12.43;58.55
63399;BME280;49533;-34.520;150.798;2022-07-15T12:32:01;101544.53;;;12.41;58.74
63399;BME280;49533;-34.520;150.798;2022-07-15T12:34:52;101550.59;;;12.38;58.00
63399;BME280;49533;-34.520;150.798;2022-07-15T12:37:25;101552.56;;;12.32;58.66
63399;BME280;49533;-34.520;150.798;2022-07-15T12:40:06;101549.31;;;12.30;58.35
63399;BME280;49533;-34.520;150.798;2022-07-15T12:42:44;101547.41;;;12.31;58.54
63399;BME280;49533;-34.520;150.798;2022-07-15T12:45:22;101541.44;;;12.29;58.53
63399;BME280;49533;-34.520;150.798;2022-07-15T12:48:09;101535.53;;;12.22;58.51
63399;BME280;49533;-34.520;150.798;2022-07-15T12:53:19;101535.25;;;12.23;58.14
63399;BME280;49533;-34.520;150.798;2022-07-15T12:55:48;101537.44;;;12.21;58.16
63399;BME280;49533;-34.520;150.798;2022-07-15T12:58:17;101531.78;;;12.17;58.27
63399;BME280;49533;-34.520;150.798;2022-07-15T13:00:49;101542.69;;;12.17;58.32
63399;BME280;49533;-34.520;150.798;2022-07-15T13:03:21;101541.03;;;12.16;58.20
63399;BME280;49533;-34.520;150.798;2022-07-15T13:05:55;101546.28;;;12.13;58.14
63399;BME280;49533;-34.520;150.798;2022-07-15T13:08:27;101534.06;;;12.10;58.26
63399;BME280;49533;-34.520;150.798;2022-07-15T13:10:56;101529.19;;;12.07;58.21
63399;BME280;49533;-34.520;150.798;2022-07-15T13:13:27;101518.00;;;12.09;58.70
63399;BME280;49533;-34.520;150.798;2022-07-15T13:15:54;101521.31;;;12.06;58.21
63399;BME280;49533;-34.520;150.798;2022-07-15T13:18:21;101509.59;;;12.05;58.17
63399;BME280;49533;-34.520;150.798;2022-07-15T13:20:52;101503.34;;;12.05;58.13
63399;BME280;49533;-34.520;150.798;2022-07-15T13:23:19;101498.50;;;12.02;58.66
63399;BME280;49533;-34.520;150.798;2022-07-15T13:25:46;101498.78;;;12.00;58.52
63399;BME280;49533;-34.520;150.798;2022-07-15T13:28:14;101502.38;;;11.95;58.72